Hannibal Center, New York
Current Conditions -  °F | °C
As of 10:54 PM on Wednesday 22 Oct 2014 (Local Time) from KFZY Reporting Station
Broken Clouds Broken Clouds  
Wind Chill: 43°   Ceiling: 12000
Heat Index: 49°   Visibility: 10mi
Dew Point: 39°   Wind: 15mph
Humidity: 69%   Direction: 10°N
Pressure: 30.1"   Gusts: 23mph
Location:  43.3091°N, 76.5484°W
Report Text: KFZY 230254Z AUTO 01013G20KT 10SM SCT070 SCT085 BKN120 09/04 A3010 RMK AO2 RAE10 SLP194 P0000 60000 T00940039 58014
Loading
Personal Weather Stations






























Interactive Weather Map
Tropical Storm Tracking
New forecast layout! Learn more

10-Day Weather Forecast

Advertisements
Track Severe Weather on mobile